Time;durP1;ratioP1;P1;durP2;ratioP2;P2;SDS_P1;SDS_P2;PMS_P1;PMS_P2;Temp;Humidity;BMP_temperature;BMP_pressure;BME280_temperature;BME280_humidity;BME280_pressure;Samples;Min_cycle;Max_cycle;Signal;HPM_P1;HPM_P2
2022/12/31 00:01:45;;;;;;;2.10;1.33;;;10.00;99.90;;;;;;6115777;23;20431;-59
2022/12/31 00:04:12;;;;;;;1.43;1.13;;;10.00;99.90;;;;;;6114252;23;20380;-60
2022/12/31 00:06:42;;;;;;;5.17;1.40;;;10.00;99.90;;;;;;6122195;23;20459;-60
2022/12/31 00:09:11;;;;;;;1.70;1.47;;;10.00;99.90;;;;;;6122124;23;20392;-58
2022/12/31 00:11:38;;;;;;;2.60;1.90;;;10.00;99.90;;;;;;6121803;23;20719;-58
2022/12/31 00:14:05;;;;;;;5.53;3.73;;;10.00;99.90;;;;;;6115850;23;20418;-59
2022/12/31 00:16:37;;;;;;;4.87;2.63;;;10.00;99.90;;;;;;6117047;23;20431;-55
2022/12/31 00:19:05;;;;;;;2.47;2.10;;;10.00;99.90;;;;;;6122000;23;20504;-56
2022/12/31 00:21:40;;;;;;;1.50;1.13;;;10.00;99.90;;;;;;6122230;23;20443;-59
2022/12/31 00:24:07;;;;;;;2.33;1.30;;;10.00;99.90;;;;;;6121946;23;20454;-55
2022/12/31 00:26:38;;;;;;;1.80;1.37;;;10.00;99.90;;;;;;6122479;23;20438;-60
2022/12/31 00:29:05;;;;;;;1.97;1.37;;;10.00;99.90;;;;;;6121671;23;20391;-59
2022/12/31 00:31:34;;;;;;;1.60;1.10;;;10.00;99.90;;;;;;6121607;23;20410;-57
2022/12/31 00:34:02;;;;;;;1.30;1.10;;;10.00;99.90;;;;;;6121922;23;20388;-57
2022/12/31 00:36:33;;;;;;;1.47;1.10;;;10.00;99.90;;;;;;6121147;23;20391;-54
2022/12/31 00:39:02;;;;;;;3.00;1.90;;;10.10;99.90;;;;;;6122141;23;20437;-59
2022/12/31 00:41:33;;;;;;;2.27;1.60;;;10.10;99.90;;;;;;6121642;23;20422;-55
2022/12/31 00:44:20;;;;;;;2.57;1.50;;;10.10;99.90;;;;;;6121806;23;20407;-61
2022/12/31 00:46:47;;;;;;;1.70;1.40;;;10.00;99.90;;;;;;6121768;23;20392;-56
2022/12/31 00:49:16;;;;;;;1.20;1.00;;;10.00;99.90;;;;;;6122998;23;20368;-58
2022/12/31 00:51:45;;;;;;;1.30;0.90;;;10.00;99.90;;;;;;6121853;23;20440;-57
2022/12/31 00:54:13;;;;;;;1.43;1.33;;;9.90;99.90;;;;;;6122213;23;20399;-61
2022/12/31 00:56:40;;;;;;;1.53;1.30;;;9.90;99.90;;;;;;6122081;23;20407;-59
2022/12/31 00:59:09;;;;;;;2.50;1.70;;;9.90;99.90;;;;;;6122340;23;20478;-59
2022/12/31 01:01:37;;;;;;;1.33;1.07;;;9.90;99.90;;;;;;6122106;23;20399;-63
2022/12/31 01:04:07;;;;;;;1.83;0.80;;;9.90;99.90;;;;;;6122729;23;20400;-60
2022/12/31 01:06:34;;;;;;;1.50;0.97;;;9.80;99.90;;;;;;6122021;23;20384;-60
2022/12/31 01:09:01;;;;;;;2.03;1.23;;;9.90;99.90;;;;;;6122504;23;20400;-55
2022/12/31 01:11:33;;;;;;;2.13;1.37;;;9.90;99.90;;;;;;6122278;23;20407;-64
2022/12/31 01:14:02;;;;;;;1.60;1.10;;;9.60;99.90;;;;;;6121377;23;20434;-57
2022/12/31 01:16:32;;;;;;;1.37;0.97;;;10.00;99.90;;;;;;6121726;23;20436;-60
2022/12/31 01:19:05;;;;;;;2.00;1.00;;;10.00;99.90;;;;;;6120869;23;20447;-58
2022/12/31 01:21:33;;;;;;;1.00;0.90;;;10.10;99.90;;;;;;6122272;23;20452;-56
2022/12/31 01:24:00;;;;;;;1.80;1.13;;;10.10;99.90;;;;;;6121357;23;20395;-59
2022/12/31 01:26:27;;;;;;;1.67;1.10;;;10.10;99.90;;;;;;6121772;23;20407;-59
2022/12/31 01:28:55;;;;;;;1.90;1.03;;;10.20;99.90;;;;;;6121687;23;20419;-60
2022/12/31 01:31:23;;;;;;;1.40;0.90;;;10.20;99.90;;;;;;6121402;23;20431;-54
2022/12/31 01:33:53;;;;;;;1.43;1.13;;;10.30;99.90;;;;;;6120839;23;20435;-58
2022/12/31 01:36:22;;;;;;;1.30;0.90;;;10.30;99.90;;;;;;6121261;23;20404;-59
2022/12/31 01:38:49;;;;;;;1.60;1.20;;;10.30;99.90;;;;;;6120908;23;20431;-57
2022/12/31 01:41:19;;;;;;;1.43;1.10;;;10.40;99.90;;;;;;6115606;23;20830;-56
2022/12/31 01:43:48;;;;;;;1.10;0.80;;;10.40;99.90;;;;;;6120648;23;20428;-58
2022/12/31 01:46:24;;;;;;;1.30;1.00;;;10.50;99.90;;;;;;6121148;23;20403;-59
2022/12/31 01:48:59;;;;;;;1.30;0.90;;;10.60;99.90;;;;;;6120678;23;20415;-61
2022/12/31 01:51:29;;;;;;;1.23;0.87;;;10.60;99.90;;;;;;6122787;23;20395;-57
2022/12/31 01:54:00;;;;;;;1.40;0.83;;;10.60;99.90;;;;;;6122830;23;20430;-59
2022/12/31 01:56:27;;;;;;;1.00;0.70;;;10.70;99.90;;;;;;6122042;23;20396;-54
2022/12/31 01:58:56;;;;;;;2.10;0.77;;;10.70;99.90;;;;;;6121619;23;20431;-59
2022/12/31 02:01:26;;;;;;;1.00;0.70;;;10.80;99.90;;;;;;6121270;23;20409;-58
2022/12/31 02:03:56;;;;;;;0.93;0.70;;;10.80;99.90;;;;;;6120657;23;20424;-56
2022/12/31 02:06:33;;;;;;;2.60;0.97;;;10.90;99.90;;;;;;6120892;23;20411;-58
2022/12/31 02:09:03;;;;;;;0.90;0.77;;;11.00;99.90;;;;;;6121517;23;20435;-59
2022/12/31 02:11:35;;;;;;;0.93;0.80;;;11.00;99.90;;;;;;6122645;23;20458;-57
2022/12/31 02:14:05;;;;;;;0.90;0.80;;;11.00;99.90;;;;;;6122687;23;20436;-61
2022/12/31 02:16:40;;;;;;;1.47;1.00;;;11.10;99.90;;;;;;6123294;23;20399;-60
2022/12/31 02:19:32;;;;;;;0.90;0.60;;;11.10;99.90;;;;;;6123306;23;20427;-63
2022/12/31 02:22:06;;;;;;;1.47;0.87;;;11.10;99.90;;;;;;6123418;23;20383;-64
2022/12/31 02:24:56;;;;;;;1.40;0.90;;;11.20;99.90;;;;;;6121779;23;20435;-54
2022/12/31 02:27:38;;;;;;;1.07;0.83;;;11.20;99.90;;;;;;6121178;23;20403;-63
2022/12/31 02:30:12;;;;;;;1.20;0.80;;;11.20;99.90;;;;;;6120014;23;20423;-59
2022/12/31 02:33:00;;;;;;;1.87;1.00;;;11.20;99.90;;;;;;6120911;23;20446;-58
2022/12/31 02:35:30;;;;;;;0.90;0.70;;;11.30;99.90;;;;;;6120486;23;20403;-58
2022/12/31 02:38:03;;;;;;;0.90;0.70;;;11.30;99.90;;;;;;6119928;23;20399;-58
2022/12/31 02:40:34;;;;;;;0.90;0.63;;;11.30;99.90;;;;;;6120437;23;20428;-58
2022/12/31 02:43:01;;;;;;;1.10;0.80;;;11.30;99.90;;;;;;6120933;23;20380;-58
2022/12/31 02:45:34;;;;;;;1.57;0.80;;;11.30;99.90;;;;;;6119308;23;20428;-59
2022/12/31 02:48:36;;;;;;;1.77;0.80;;;11.30;99.90;;;;;;6121425;23;20447;-56
2022/12/31 02:51:13;;;;;;;1.30;0.90;;;11.30;99.90;;;;;;6004121;24;20438;-59
2022/12/31 02:53:56;;;;;;;1.30;0.90;;;11.30;99.90;;;;;;6100188;23;20410;-58
2022/12/31 02:56:28;;;;;;;1.00;0.70;;;11.20;99.90;;;;;;6120149;23;20403;-57
2022/12/31 03:02:18;;;;;;;0.93;0.77;;;11.10;99.90;;;;;;6120364;23;20412;-59
2022/12/31 03:04:49;;;;;;;0.90;0.70;;;11.10;99.90;;;;;;6121392;23;20454;-58
2022/12/31 03:07:20;;;;;;;1.83;0.93;;;11.00;99.90;;;;;;6121620;23;20379;-59
2022/12/31 03:09:47;;;;;;;1.10;0.70;;;10.90;99.90;;;;;;6120828;23;20451;-57
2022/12/31 03:14:59;;;;;;;1.83;1.53;;;10.80;99.90;;;;;;6121819;23;20384;-59
2022/12/31 03:17:29;;;;;;;1.50;1.10;;;10.80;99.90;;;;;;6121759;23;20384;-60
2022/12/31 03:22:44;;;;;;;1.30;0.70;;;10.70;99.90;;;;;;6120618;23;20403;-58
2022/12/31 03:27:59;;;;;;;0.90;0.60;;;10.80;99.90;;;;;;6120234;23;20408;-58
2022/12/31 03:30:27;;;;;;;1.00;0.70;;;10.70;99.90;;;;;;6120562;23;20407;-58
2022/12/31 03:32:56;;;;;;;1.43;0.87;;;10.70;99.90;;;;;;6120188;23;20399;-59
2022/12/31 03:35:24;;;;;;;0.90;0.70;;;10.80;99.90;;;;;;6120258;23;20431;-56
2022/12/31 03:37:52;;;;;;;9.23;0.73;;;10.70;99.90;;;;;;6120769;23;20394;-58
2022/12/31 03:40:21;;;;;;;1.30;0.80;;;10.80;99.90;;;;;;6118992;23;20454;-59
2022/12/31 03:42:48;;;;;;;0.90;0.70;;;10.80;99.90;;;;;;6120173;23;20416;-59
2022/12/31 03:45:15;;;;;;;2.17;1.00;;;10.80;99.90;;;;;;6119398;23;20407;-59
2022/12/31 03:47:42;;;;;;;0.90;0.70;;;10.90;99.90;;;;;;6119913;23;20419;-58
2022/12/31 03:50:12;;;;;;;1.40;0.70;;;10.90;99.90;;;;;;6119560;23;20400;-58
2022/12/31 03:52:40;;;;;;;0.90;0.70;;;10.90;99.90;;;;;;6119565;23;20443;-58
2022/12/31 03:55:08;;;;;;;1.10;0.90;;;10.90;99.90;;;;;;6119635;23;20415;-59
2022/12/31 03:57:35;;;;;;;1.37;0.93;;;11.00;99.90;;;;;;6119167;23;20469;-56
2022/12/31 04:00:03;;;;;;;1.10;0.70;;;11.00;99.90;;;;;;6119566;23;20443;-58
2022/12/31 04:02:32;;;;;;;1.43;0.90;;;11.10;99.90;;;;;;6119605;23;20430;-59
2022/12/31 04:04:59;;;;;;;1.30;0.77;;;11.10;99.90;;;;;;6120045;23;20387;-59
2022/12/31 04:07:27;;;;;;;0.90;0.60;;;11.10;99.90;;;;;;6119880;23;20411;-58
2022/12/31 04:09:54;;;;;;;1.63;0.90;;;11.20;99.90;;;;;;6119490;23;20428;-59
2022/12/31 04:12:24;;;;;;;1.03;0.70;;;11.20;99.90;;;;;;6120528;23;20443;-58
2022/12/31 04:14:51;;;;;;;1.30;0.93;;;11.20;99.90;;;;;;6120269;23;20407;-59
2022/12/31 04:17:18;;;;;;;1.20;1.00;;;11.30;99.90;;;;;;6119330;23;20432;-57
2022/12/31 04:19:45;;;;;;;0.90;0.70;;;11.30;99.90;;;;;;6119037;23;20902;-58
2022/12/31 04:22:12;;;;;;;0.90;0.70;;;11.40;99.90;;;;;;6121547;23;20399;-59
2022/12/31 04:24:41;;;;;;;1.07;0.70;;;11.40;99.90;;;;;;6121116;23;20388;-59
2022/12/31 04:27:08;;;;;;;1.43;0.80;;;11.50;99.90;;;;;;6121605;23;20412;-58
2022/12/31 04:29:35;;;;;;;0.93;0.67;;;11.50;99.90;;;;;;6122073;23;20404;-56
2022/12/31 04:32:02;;;;;;;1.10;0.70;;;11.50;99.90;;;;;;6119684;23;20395;-55
2022/12/31 04:34:29;;;;;;;3.63;1.47;;;11.60;99.90;;;;;;6116334;23;20415;-57
2022/12/31 04:36:56;;;;;;;1.10;0.77;;;11.60;99.90;;;;;;6121231;23;20399;-58
2022/12/31 04:39:24;;;;;;;1.17;0.90;;;11.60;99.90;;;;;;6120402;23;20435;-58
2022/12/31 04:41:52;;;;;;;0.90;0.67;;;11.70;99.90;;;;;;6120738;23;20457;-59
2022/12/31 04:44:19;;;;;;;2.43;0.80;;;11.70;99.90;;;;;;6118184;23;20431;-58
2022/12/31 04:46:47;;;;;;;1.10;0.90;;;11.70;99.90;;;;;;6120282;23;20419;-59
2022/12/31 04:49:13;;;;;;;0.90;0.80;;;11.70;99.90;;;;;;6123375;23;20450;-61
2022/12/31 04:51:40;;;;;;;0.90;0.70;;;11.70;99.90;;;;;;6124450;23;20388;-56
2022/12/31 04:54:09;;;;;;;0.90;0.70;;;11.70;99.90;;;;;;6123168;23;20412;-63
2022/12/31 04:56:36;;;;;;;1.00;0.70;;;11.80;99.90;;;;;;6121607;23;20427;-58
2022/12/31 04:59:06;;;;;;;0.90;0.80;;;11.80;99.90;;;;;;6120958;23;20519;-57
2022/12/31 05:01:33;;;;;;;1.00;0.80;;;11.80;99.90;;;;;;6120515;23;20431;-59
2022/12/31 05:04:03;;;;;;;1.57;1.10;;;11.80;99.90;;;;;;6120506;23;20428;-59
2022/12/31 05:06:30;;;;;;;1.90;0.90;;;11.80;99.90;;;;;;6121337;23;20376;-60
2022/12/31 05:08:57;;;;;;;3.23;0.73;;;11.90;99.90;;;;;;6120885;23;20411;-59
2022/12/31 05:11:23;;;;;;;2.50;0.90;;;11.90;99.90;;;;;;6121421;23;20403;-59
2022/12/31 05:13:50;;;;;;;1.00;0.90;;;11.90;99.90;;;;;;6119113;23;20414;-59
2022/12/31 05:16:18;;;;;;;1.13;0.70;;;12.00;99.90;;;;;;6114080;23;20408;-58
2022/12/31 05:18:45;;;;;;;1.10;0.87;;;12.00;99.90;;;;;;6121325;23;20410;-55
2022/12/31 05:21:18;;;;;;;1.50;1.00;;;12.00;99.90;;;;;;6118889;23;20443;-57
2022/12/31 05:23:45;;;;;;;2.30;1.00;;;12.10;99.90;;;;;;6120587;23;20400;-58
2022/12/31 05:26:11;;;;;;;1.00;0.90;;;12.10;99.90;;;;;;6119107;23;20847;-57
2022/12/31 05:28:38;;;;;;;1.00;0.90;;;12.20;99.90;;;;;;6119882;23;20400;-59
2022/12/31 05:31:05;;;;;;;1.30;0.80;;;12.20;99.90;;;;;;6120791;23;20428;-59
2022/12/31 05:33:33;;;;;;;1.90;1.00;;;12.30;99.90;;;;;;6120810;23;20415;-59
2022/12/31 05:36:00;;;;;;;6.03;1.10;;;12.30;99.90;;;;;;6120350;23;20435;-58
2022/12/31 05:38:27;;;;;;;1.07;0.83;;;12.30;99.90;;;;;;6121324;23;20391;-56
2022/12/31 05:41:02;;;;;;;1.00;0.90;;;12.20;99.90;;;;;;6119957;23;20455;-60
2022/12/31 05:43:29;;;;;;;0.90;0.80;;;12.20;99.90;;;;;;6119826;23;20411;-59
2022/12/31 05:45:56;;;;;;;0.97;0.80;;;12.10;99.90;;;;;;6119180;23;20431;-59
2022/12/31 05:48:23;;;;;;;1.50;0.90;;;12.00;99.90;;;;;;6120799;23;20391;-59
2022/12/31 05:50:52;;;;;;;1.00;0.70;;;12.00;99.90;;;;;;6120230;23;20434;-60
2022/12/31 05:53:19;;;;;;;1.00;0.83;;;11.90;99.90;;;;;;6110478;23;20402;-59
2022/12/31 05:55:47;;;;;;;1.10;1.00;;;11.90;99.90;;;;;;6119860;23;20713;-59
2022/12/31 05:58:14;;;;;;;1.30;1.13;;;11.90;99.90;;;;;;6114251;23;20487;-58
2022/12/31 06:00:43;;;;;;;1.63;1.17;;;11.90;99.90;;;;;;6118854;23;20451;-60
2022/12/31 06:03:12;;;;;;;1.13;1.00;;;11.90;99.90;;;;;;6119852;23;20420;-63
2022/12/31 06:05:41;;;;;;;1.30;0.90;;;11.90;99.90;;;;;;6120939;23;20469;-59
2022/12/31 06:08:09;;;;;;;1.63;1.20;;;11.90;99.90;;;;;;6122577;23;20415;-59
2022/12/31 06:10:36;;;;;;;2.03;1.57;;;11.90;99.90;;;;;;6121211;23;20407;-59
2022/12/31 06:13:03;;;;;;;2.60;1.03;;;11.80;99.90;;;;;;6119316;23;20396;-54
2022/12/31 06:15:30;;;;;;;2.07;1.43;;;11.80;99.90;;;;;;6120123;23;20414;-54
2022/12/31 06:17:57;;;;;;;2.00;1.73;;;11.80;99.90;;;;;;6119371;23;20442;-58
2022/12/31 06:20:24;;;;;;;1.23;1.13;;;11.80;99.90;;;;;;6121819;23;20388;-56
2022/12/31 06:22:51;;;;;;;2.13;1.43;;;11.90;99.90;;;;;;6120677;23;20435;-59
2022/12/31 06:25:20;;;;;;;2.60;1.40;;;11.90;99.90;;;;;;6121036;23;20399;-65
2022/12/31 06:27:46;;;;;;;1.67;1.37;;;11.90;99.90;;;;;;6120963;23;20447;-62
2022/12/31 06:30:14;;;;;;;4.33;1.57;;;11.90;99.90;;;;;;6120546;23;20403;-57
2022/12/31 06:32:44;;;;;;;2.27;1.07;;;11.90;99.90;;;;;;6121139;23;20935;-64
2022/12/31 06:35:11;;;;;;;1.07;0.97;;;12.00;99.90;;;;;;6121050;23;20688;-59
2022/12/31 06:37:38;;;;;;;1.10;0.83;;;12.00;99.90;;;;;;6121432;23;20411;-58
2022/12/31 06:40:06;;;;;;;1.50;1.03;;;12.10;99.90;;;;;;6121325;23;20404;-60
2022/12/31 06:42:34;;;;;;;0.90;0.70;;;12.20;99.90;;;;;;6120800;23;20448;-58
2022/12/31 06:45:01;;;;;;;2.00;1.00;;;12.20;99.90;;;;;;6120628;23;20380;-57
2022/12/31 06:47:28;;;;;;;1.00;0.80;;;12.30;99.90;;;;;;6120832;23;20439;-60
2022/12/31 06:49:54;;;;;;;1.43;0.80;;;12.30;99.90;;;;;;6121052;23;20459;-59
2022/12/31 06:52:22;;;;;;;1.43;1.10;;;12.40;99.90;;;;;;6121042;23;20406;-61
2022/12/31 06:54:49;;;;;;;0.90;0.67;;;12.50;99.90;;;;;;6121442;23;20407;-59
2022/12/31 06:57:17;;;;;;;0.90;0.70;;;12.60;99.90;;;;;;6120975;23;20399;-58
2022/12/31 06:59:46;;;;;;;1.37;0.90;;;12.60;99.90;;;;;;6121083;23;20443;-58
2022/12/31 07:02:54;;;;;;;1.70;0.80;;;12.70;99.90;;;;;;6120889;23;20431;-56
2022/12/31 07:05:39;;;;;;;1.50;0.77;;;12.80;99.90;;;;;;6065456;23;20412;-51
2022/12/31 07:08:18;;;;;;;1.63;1.07;;;12.90;99.90;;;;;;6122145;23;20391;-49
2022/12/31 07:10:52;;;;;;;0.90;0.70;;;12.90;99.90;;;;;;6123421;23;20380;-60
2022/12/31 07:13:40;;;;;;;0.93;0.73;;;13.00;99.90;;;;;;6121687;23;20396;-58
2022/12/31 07:16:29;;;;;;;1.00;0.70;;;13.00;99.90;;;;;;6120938;23;20388;-57
2022/12/31 07:19:08;;;;;;;1.00;0.80;;;13.10;99.90;;;;;;6112135;23;20423;-61
2022/12/31 07:21:37;;;;;;;1.20;0.90;;;13.20;99.90;;;;;;6121389;23;20407;-57
2022/12/31 07:24:06;;;;;;;1.47;1.00;;;13.20;99.90;;;;;;6115564;23;20442;-55
2022/12/31 07:26:47;;;;;;;1.33;1.07;;;13.30;99.90;;;;;;6122530;23;20404;-56
2022/12/31 07:29:20;;;;;;;1.60;0.80;;;13.30;99.90;;;;;;6121474;23;20438;-61
2022/12/31 07:32:01;;;;;;;3.60;0.93;;;13.40;99.90;;;;;;6121414;23;20420;-61
2022/12/31 07:34:37;;;;;;;3.03;1.53;;;13.40;99.90;;;;;;6120013;23;20431;-59
2022/12/31 07:37:11;;;;;;;0.90;0.80;;;13.40;99.90;;;;;;6120218;23;20829;-60
2022/12/31 07:39:45;;;;;;;1.00;0.80;;;13.50;99.90;;;;;;6119948;23;20463;-61
2022/12/31 07:42:16;;;;;;;1.03;0.93;;;13.60;99.90;;;;;;6120756;23;20984;-57
2022/12/31 07:44:57;;;;;;;1.23;0.80;;;13.60;99.90;;;;;;6119762;23;20435;-57
2022/12/31 07:47:27;;;;;;;1.20;0.80;;;13.70;99.90;;;;;;6120425;23;20430;-60
2022/12/31 07:49:55;;;;;;;1.67;0.80;;;13.80;99.90;;;;;;6120537;23;20416;-58
2022/12/31 07:52:22;;;;;;;0.93;0.80;;;13.80;99.90;;;;;;6119952;23;20372;-58
2022/12/31 07:54:49;;;;;;;1.20;0.70;;;13.80;99.90;;;;;;6119962;23;20387;-59
2022/12/31 07:57:19;;;;;;;1.00;0.80;;;13.80;99.90;;;;;;6124325;23;20399;-58
2022/12/31 07:59:57;;;;;;;1.00;0.90;;;13.90;99.90;;;;;;6122666;23;20415;-59
2022/12/31 08:02:39;;;;;;;1.10;0.80;;;14.00;99.90;;;;;;6123711;23;20442;-59
2022/12/31 08:05:26;;;;;;;1.50;1.07;;;14.00;99.90;;;;;;6122417;23;20387;-59
2022/12/31 08:07:59;;;;;;;2.40;1.20;;;14.10;99.90;;;;;;6122657;23;20378;-59
2022/12/31 08:10:34;;;;;;;1.00;0.80;;;14.20;99.90;;;;;;6114139;23;20416;-62
2022/12/31 08:13:03;;;;;;;0.90;0.70;;;14.20;99.90;;;;;;6122158;23;20390;-58
2022/12/31 08:15:31;;;;;;;1.33;0.80;;;14.20;99.90;;;;;;6123134;23;20407;-58
2022/12/31 08:17:59;;;;;;;1.20;0.90;;;14.30;99.90;;;;;;6122488;23;20415;-59
2022/12/31 08:20:27;;;;;;;1.03;0.80;;;14.30;99.90;;;;;;6122043;23;20408;-59
2022/12/31 08:23:21;;;;;;;2.27;1.10;;;14.40;99.90;;;;;;6121470;23;20427;-57
2022/12/31 08:26:03;;;;;;;1.93;1.20;;;14.40;99.90;;;;;;6122045;23;20424;-59
2022/12/31 08:28:46;;;;;;;1.33;1.10;;;14.40;99.90;;;;;;6122338;23;20404;-56
2022/12/31 08:31:17;;;;;;;1.10;0.80;;;14.50;99.90;;;;;;6119911;23;20424;-60
2022/12/31 08:33:53;;;;;;;0.97;0.77;;;14.50;99.90;;;;;;6120599;23;20388;-61
2022/12/31 08:36:26;;;;;;;1.50;1.07;;;14.60;99.90;;;;;;6120788;23;20426;-59
2022/12/31 08:39:00;;;;;;;1.00;0.80;;;14.60;99.90;;;;;;6121522;23;20474;-59
2022/12/31 08:41:32;;;;;;;1.27;1.00;;;14.60;99.90;;;;;;6120064;23;20463;-59
2022/12/31 08:44:11;;;;;;;1.57;1.00;;;14.70;99.90;;;;;;6120671;23;20395;-57
2022/12/31 08:46:44;;;;;;;1.10;1.00;;;14.70;99.90;;;;;;6119450;23;20420;-58
2022/12/31 08:49:14;;;;;;;1.63;0.90;;;14.70;99.90;;;;;;6120600;23;20391;-58
2022/12/31 08:51:42;;;;;;;1.20;0.80;;;14.80;99.90;;;;;;6120222;23;20459;-59
2022/12/31 08:54:10;;;;;;;1.93;0.80;;;14.80;99.90;;;;;;6120680;23;20388;-59
2022/12/31 08:56:44;;;;;;;1.30;0.90;;;14.90;99.90;;;;;;6121498;23;20435;-59
2022/12/31 08:59:26;;;;;;;0.90;0.80;;;15.00;99.90;;;;;;6121740;23;20443;-60
2022/12/31 09:02:26;;;;;;;2.30;0.70;;;15.10;99.90;;;;;;6120769;23;20440;-60
2022/12/31 09:05:03;;;;;;;1.10;0.77;;;15.10;99.90;;;;;;6120611;23;20399;-60
2022/12/31 09:07:36;;;;;;;0.93;0.80;;;15.10;99.90;;;;;;6121027;23;20407;-58
2022/12/31 09:10:14;;;;;;;1.47;0.80;;;15.10;99.90;;;;;;6122121;23;20406;-58
2022/12/31 09:12:51;;;;;;;3.30;1.07;;;15.20;99.90;;;;;;6120618;23;20428;-57
2022/12/31 09:15:24;;;;;;;1.50;1.37;;;15.30;99.90;;;;;;6121177;23;20411;-59
2022/12/31 09:17:51;;;;;;;1.03;0.80;;;15.30;99.90;;;;;;6122184;23;20431;-57
2022/12/31 09:20:24;;;;;;;1.00;0.80;;;15.40;99.90;;;;;;6120051;23;20427;-59
2022/12/31 09:22:52;;;;;;;2.90;1.00;;;15.40;99.90;;;;;;6121085;23;20431;-59
2022/12/31 09:25:24;;;;;;;1.10;0.90;;;15.40;99.90;;;;;;6121839;23;20424;-59
2022/12/31 09:28:11;;;;;;;1.00;0.80;;;15.40;99.90;;;;;;6121357;23;20557;-63
2022/12/31 09:30:45;;;;;;;1.47;0.90;;;15.50;99.90;;;;;;6117796;23;20447;-58
2022/12/31 09:33:16;;;;;;;1.20;0.90;;;15.70;99.90;;;;;;6121848;23;20368;-61
2022/12/31 09:35:52;;;;;;;1.07;0.90;;;15.80;99.90;;;;;;6123155;23;20400;-62
2022/12/31 09:38:26;;;;;;;0.90;0.80;;;15.80;99.90;;;;;;6123276;23;20394;-61
2022/12/31 09:41:14;;;;;;;1.30;0.90;;;15.90;99.90;;;;;;6122777;23;20403;-60
2022/12/31 09:44:19;;;;;;;1.33;0.97;;;16.00;99.90;;;;;;6122056;23;20391;-59
2022/12/31 09:47:32;;;;;;;1.10;0.90;;;16.00;99.90;;;;;;6111860;23;20742;-60
2022/12/31 09:50:42;;;;;;;1.20;0.80;;;16.20;99.90;;;;;;6122066;23;20428;-59
2022/12/31 09:53:39;;;;;;;1.30;1.10;;;16.30;99.90;;;;;;6122709;23;20375;-55
2022/12/31 09:56:16;;;;;;;1.20;1.00;;;16.30;99.90;;;;;;6116940;23;20415;-60
2022/12/31 09:58:56;;;;;;;1.40;0.90;;;16.40;99.90;;;;;;6122539;23;20412;-61
2022/12/31 10:01:33;;;;;;;1.00;0.80;;;16.60;99.90;;;;;;6122708;23;20383;-62
2022/12/31 10:04:27;;;;;;;0.90;0.73;;;16.80;99.90;;;;;;6122555;23;20371;-58
2022/12/31 10:07:09;;;;;;;1.23;0.97;;;17.00;99.90;;;;;;6122396;23;20386;-57
2022/12/31 10:09:51;;;;;;;1.10;0.90;;;17.10;99.90;;;;;;6121294;23;20384;-59
2022/12/31 10:12:46;;;;;;;1.40;1.07;;;17.10;99.90;;;;;;6121165;23;20419;-59
2022/12/31 10:15:48;;;;;;;1.77;1.00;;;17.00;99.90;;;;;;6112279;23;20431;-59
2022/12/31 10:18:28;;;;;;;1.13;0.90;;;16.90;99.90;;;;;;6115826;23;20443;-61
2022/12/31 10:21:13;;;;;;;1.20;0.90;;;16.90;99.90;;;;;;6118821;23;20426;-61
2022/12/31 10:24:17;;;;;;;1.20;1.00;;;16.80;99.90;;;;;;6119992;23;20431;-59
2022/12/31 10:27:06;;;;;;;1.00;0.80;;;17.00;99.90;;;;;;6121605;23;20414;-61
2022/12/31 10:29:42;;;;;;;2.20;1.17;;;17.20;99.90;;;;;;6120285;23;20388;-57
2022/12/31 10:32:19;;;;;;;1.20;0.90;;;17.20;99.90;;;;;;6121149;23;20415;-63
2022/12/31 10:34:55;;;;;;;2.43;0.90;;;17.10;99.90;;;;;;6111886;23;20392;-59
2022/12/31 10:37:30;;;;;;;1.20;0.80;;;17.10;99.90;;;;;;6120799;23;20407;-58
2022/12/31 10:40:15;;;;;;;1.70;0.80;;;17.10;99.90;;;;;;6121130;23;20887;-60
2022/12/31 10:43:20;;;;;;;1.37;0.97;;;17.00;99.90;;;;;;6121514;23;20455;-61
2022/12/31 10:46:18;;;;;;;1.90;1.20;;;17.00;99.90;;;;;;6120138;23;20415;-58
2022/12/31 10:49:39;;;;;;;1.87;1.20;;;16.90;99.90;;;;;;6119494;23;20407;-60
2022/12/31 10:52:48;;;;;;;1.97;1.17;;;16.90;99.90;;;;;;6120355;23;20420;-54
2022/12/31 10:55:44;;;;;;;3.47;1.40;;;16.90;99.90;;;;;;6120543;23;20379;-60
2022/12/31 10:58:34;;;;;;;2.53;1.07;;;16.90;99.90;;;;;;6071345;23;20422;-59
2022/12/31 11:01:09;;;;;;;1.47;1.00;;;16.90;99.90;;;;;;6119974;23;20391;-55
2022/12/31 11:04:06;;;;;;;1.20;0.90;;;16.80;99.90;;;;;;6119291;23;20447;-61
2022/12/31 11:07:32;;;;;;;1.20;1.00;;;16.80;99.90;;;;;;6115217;23;20430;-57
2022/12/31 11:10:35;;;;;;;2.07;1.23;;;16.80;99.90;;;;;;6120634;23;20368;-59
2022/12/31 11:13:48;;;;;;;1.97;1.07;;;16.70;99.90;;;;;;6117784;23;20454;-60
2022/12/31 11:16:32;;;;;;;1.20;1.03;;;16.70;99.90;;;;;;6120123;23;20403;-60
2022/12/31 11:19:06;;;;;;;1.60;1.10;;;16.60;99.90;;;;;;6121000;23;20392;-60
2022/12/31 11:21:50;;;;;;;1.20;1.00;;;16.60;99.90;;;;;;6120061;23;20384;-60
2022/12/31 11:24:31;;;;;;;1.50;1.20;;;16.60;99.90;;;;;;6119831;23;20458;-58
2022/12/31 11:27:15;;;;;;;1.00;0.80;;;16.60;99.90;;;;;;6119566;23;20391;-60
2022/12/31 11:30:01;;;;;;;1.50;1.03;;;16.70;99.90;;;;;;6120432;23;20394;-55
2022/12/31 11:32:44;;;;;;;1.23;0.80;;;16.70;99.90;;;;;;6122160;23;20423;-59
2022/12/31 11:35:31;;;;;;;1.30;0.90;;;16.70;99.90;;;;;;6123168;23;20399;-59
2022/12/31 11:38:09;;;;;;;5.33;1.63;;;16.80;99.90;;;;;;6122378;23;20476;-61
2022/12/31 11:40:43;;;;;;;4.53;1.43;;;16.80;99.90;;;;;;6123363;23;20371;-58
2022/12/31 11:43:27;;;;;;;4.27;1.50;;;16.80;99.90;;;;;;6123327;23;20458;-63
2022/12/31 11:46:17;;;;;;;1.50;1.30;;;16.90;99.90;;;;;;6124400;23;20403;-60
2022/12/31 11:48:57;;;;;;;1.47;1.20;;;17.00;99.90;;;;;;6123890;23;20431;-56
2022/12/31 11:51:47;;;;;;;2.30;1.40;;;17.00;99.90;;;;;;6124396;23;20379;-62
2022/12/31 11:54:47;;;;;;;1.30;1.07;;;17.00;99.90;;;;;;6123925;23;20427;-59
2022/12/31 11:57:24;;;;;;;1.47;1.20;;;17.00;99.90;;;;;;6075838;23;20419;-56
2022/12/31 11:59:56;;;;;;;3.40;1.67;;;17.10;99.90;;;;;;6123248;23;20443;-59
2022/12/31 12:02:26;;;;;;;2.20;1.33;;;16.10;99.90;;;;;;6123050;23;20463;-56
2022/12/31 12:04:57;;;;;;;2.03;1.30;;;17.20;99.90;;;;;;6113508;23;20414;-60
2022/12/31 12:07:25;;;;;;;1.50;1.20;;;17.20;99.90;;;;;;6122806;23;20392;-59
2022/12/31 12:09:55;;;;;;;2.40;1.00;;;17.30;99.90;;;;;;6121990;23;20431;-59
2022/12/31 12:12:24;;;;;;;1.00;0.80;;;17.30;99.90;;;;;;6121971;23;20414;-61
2022/12/31 12:14:55;;;;;;;1.10;1.00;;;17.40;99.90;;;;;;6121687;23;20423;-56
2022/12/31 12:17:31;;;;;;;1.30;1.00;;;17.50;99.90;;;;;;6121666;23;20456;-59
2022/12/31 12:20:02;;;;;;;2.30;1.30;;;17.60;99.90;;;;;;6121496;23;20431;-60
2022/12/31 12:22:31;;;;;;;3.23;1.10;;;17.60;99.90;;;;;;6121000;23;20494;-58
2022/12/31 12:25:05;;;;;;;1.40;1.00;;;17.60;99.90;;;;;;6122109;23;20407;-57
2022/12/31 12:27:34;;;;;;;2.50;1.27;;;17.70;99.90;;;;;;6121980;23;20387;-58
2022/12/31 12:30:09;;;;;;;1.83;1.30;;;17.60;99.90;;;;;;6121624;23;20411;-57
2022/12/31 12:32:36;;;;;;;1.57;1.40;;;17.60;99.90;;;;;;6122112;23;20414;-59
2022/12/31 12:35:16;;;;;;;2.23;1.00;;;17.60;99.90;;;;;;6121406;23;20399;-59
2022/12/31 12:37:43;;;;;;;1.37;0.80;;;17.60;99.90;;;;;;6121785;23;20422;-58
2022/12/31 12:40:20;;;;;;;4.17;1.30;;;17.60;99.90;;;;;;6121349;23;20747;-58
2022/12/31 12:42:52;;;;;;;3.60;1.70;;;17.50;99.90;;;;;;6121507;23;20454;-57
2022/12/31 12:45:22;;;;;;;1.30;1.10;;;17.50;99.90;;;;;;6122715;23;20392;-59
2022/12/31 12:47:55;;;;;;;2.00;1.50;;;17.50;99.90;;;;;;6122244;23;20442;-61
2022/12/31 12:50:25;;;;;;;2.23;1.20;;;17.50;99.90;;;;;;6115626;23;20396;-60
2022/12/31 12:53:33;;;;;;;1.67;1.10;;;17.60;99.90;;;;;;6122718;23;20423;-58
2022/12/31 12:56:11;;;;;;;1.30;0.93;;;17.50;99.90;;;;;;6117237;23;20415;-59
2022/12/31 12:58:48;;;;;;;1.57;1.20;;;17.60;99.90;;;;;;6122651;23;20439;-58
2022/12/31 13:01:26;;;;;;;1.33;1.20;;;17.60;99.90;;;;;;6121928;23;20415;-55
2022/12/31 13:04:20;;;;;;;2.03;1.40;;;17.50;99.90;;;;;;6121355;23;20435;-60
2022/12/31 13:07:17;;;;;;;2.43;1.50;;;17.50;99.90;;;;;;6122265;23;20376;-62
2022/12/31 13:10:02;;;;;;;3.03;1.53;;;17.50;99.90;;;;;;6122562;23;20411;-57
2022/12/31 13:12:35;;;;;;;1.87;1.30;;;17.60;99.90;;;;;;6123543;23;20394;-63
2022/12/31 13:15:08;;;;;;;2.13;1.10;;;17.60;99.90;;;;;;6122777;23;20427;-58
2022/12/31 13:17:51;;;;;;;1.20;1.10;;;17.60;99.90;;;;;;6122384;23;20399;-58
2022/12/31 13:20:26;;;;;;;2.80;1.20;;;17.60;99.90;;;;;;6121076;23;20388;-61
2022/12/31 13:23:33;;;;;;;1.27;1.17;;;17.60;99.90;;;;;;6121431;23;20415;-58
2022/12/31 13:26:07;;;;;;;1.20;0.87;;;17.60;99.90;;;;;;6095384;23;20447;-58
2022/12/31 13:28:39;;;;;;;1.70;1.20;;;17.70;99.90;;;;;;6121461;23;20384;-58
2022/12/31 13:31:10;;;;;;;1.40;1.10;;;17.60;99.90;;;;;;6121323;23;20407;-59
2022/12/31 13:33:42;;;;;;;1.33;1.10;;;17.60;99.90;;;;;;6121441;23;20402;-58
2022/12/31 13:36:14;;;;;;;1.60;1.33;;;17.60;99.90;;;;;;6121279;23;20407;-56
2022/12/31 13:38:46;;;;;;;2.00;1.30;;;17.60;99.90;;;;;;6120417;23;20463;-57